Time;durP1;ratioP1;P1;durP2;ratioP2;P2;SDS_P1;SDS_P2;PMS_P1;PMS_P2;Temp;Humidity;BMP_temperature;BMP_pressure;BME280_temperature;BME280_humidity;BME280_pressure;Samples;Min_cycle;Max_cycle;Signal;HPM_P1;HPM_P2
2021/11/23 00:00:11;;;;;;;96.72;41.25;;;;;;;;;;5033563;28;20025;-63
2021/11/23 00:02:37;;;;;;;84.27;41.43;;;;;;;;;;5015960;28;20352;-65
2021/11/23 00:05:04;;;;;;;91.45;39.15;;;;;;;;;;5033468;28;20112;-65
2021/11/23 00:07:30;;;;;;;76.07;38.55;;;;;;;;;;5033318;28;20112;-64
2021/11/23 00:09:56;;;;;;;81.85;39.55;;;;;;;;;;5033334;28;20440;-64
2021/11/23 00:12:43;;;;;;;86.93;38.47;;;;;;;;;;5030963;28;20060;-65
2021/11/23 00:15:09;;;;;;;83.85;37.75;;;;;;;;;;5033245;28;20099;-64
2021/11/23 00:17:35;;;;;;;78.38;38.22;;;;;;;;;;5033189;28;20033;-65
2021/11/23 00:20:02;;;;;;;85.30;40.05;;;;;;;;;;5033198;28;20072;-69
2021/11/23 00:22:31;;;;;;;81.68;39.28;;;;;;;;;;5032792;28;20387;-64
2021/11/23 00:24:57;;;;;;;81.47;38.17;;;;;;;;;;5048220;28;20029;-65
2021/11/23 00:27:23;;;;;;;80.43;36.55;;;;;;;;;;5048244;28;20037;-64
2021/11/23 00:29:50;;;;;;;80.72;38.40;;;;;;;;;;5033080;28;20034;-63
2021/11/23 00:32:16;;;;;;;82.80;37.30;;;;;;;;;;5033307;28;20033;-64
2021/11/23 00:34:42;;;;;;;78.18;38.17;;;;;;;;;;5032574;28;20477;-64
2021/11/23 00:37:08;;;;;;;75.35;35.55;;;;;;;;;;5032938;28;20029;-63
2021/11/23 00:39:35;;;;;;;78.07;37.08;;;;;;;;;;5032999;28;20033;-63
2021/11/23 00:42:01;;;;;;;77.57;36.03;;;;;;;;;;5048114;28;20025;-63
2021/11/23 00:44:27;;;;;;;78.53;35.30;;;;;;;;;;5032787;28;20017;-63
2021/11/23 00:46:53;;;;;;;78.20;35.25;;;;;;;;;;5032806;28;20510;-63
2021/11/23 00:49:19;;;;;;;74.82;35.78;;;;;;;;;;5032858;28;20040;-64
2021/11/23 00:51:46;;;;;;;72.55;33.33;;;;;;;;;;5032894;28;20025;-64
2021/11/23 00:54:12;;;;;;;73.55;35.20;;;;;;;;;;5032672;28;20060;-64
2021/11/23 00:56:38;;;;;;;80.80;34.42;;;;;;;;;;5032736;28;20104;-64
2021/11/23 00:59:05;;;;;;;75.70;33.38;;;;;;;;;;5032773;28;20029;-63
2021/11/23 01:01:31;;;;;;;74.10;34.47;;;;;;;;;;5047793;28;20120;-63
2021/11/23 01:03:57;;;;;;;72.28;34.00;;;;;;;;;;5048001;28;20113;-64
2021/11/23 01:06:24;;;;;;;70.65;34.20;;;;;;;;;;5032505;28;20038;-63
2021/11/23 01:08:50;;;;;;;66.07;31.13;;;;;;;;;;5032595;28;20032;-64
2021/11/23 01:11:18;;;;;;;74.07;30.92;;;;;;;;;;5011082;28;20053;-63
2021/11/23 01:13:45;;;;;;;70.20;31.58;;;;;;;;;;5013010;28;20359;-63
2021/11/23 01:16:12;;;;;;;68.05;31.90;;;;;;;;;;5013237;28;20399;-64
2021/11/23 01:18:38;;;;;;;69.63;31.38;;;;;;;;;;5012826;28;20033;-64
2021/11/23 01:21:06;;;;;;;63.30;30.25;;;;;;;;;;5012925;28;20029;-64
2021/11/23 01:23:33;;;;;;;66.10;30.15;;;;;;;;;;5011463;28;20088;-63
2021/11/23 01:25:59;;;;;;;67.20;29.55;;;;;;;;;;5012792;28;20028;-63
2021/11/23 01:28:26;;;;;;;65.70;29.20;;;;;;;;;;5012726;28;20026;-63
2021/11/23 01:30:52;;;;;;;63.05;28.90;;;;;;;;;;5012816;28;20042;-63
2021/11/23 01:33:19;;;;;;;68.63;29.88;;;;;;;;;;5012877;28;20033;-62
2021/11/23 01:35:45;;;;;;;64.45;30.85;;;;;;;;;;5011500;28;20080;-64
2021/11/23 01:38:13;;;;;;;64.93;30.75;;;;;;;;;;5011321;28;20136;-64
2021/11/23 01:40:39;;;;;;;68.75;32.75;;;;;;;;;;5011194;28;20022;-63
2021/11/23 01:43:06;;;;;;;66.10;32.72;;;;;;;;;;5011331;28;20126;-63
2021/11/23 01:45:33;;;;;;;77.80;32.25;;;;;;;;;;5012667;28;20037;-64
2021/11/23 01:47:59;;;;;;;68.00;31.42;;;;;;;;;;5011275;28;20497;-63
2021/11/23 01:50:26;;;;;;;69.38;32.05;;;;;;;;;;5012537;28;20030;-63
2021/11/23 01:52:53;;;;;;;67.50;31.73;;;;;;;;;;5012704;28;20084;-64
2021/11/23 01:55:20;;;;;;;70.47;31.27;;;;;;;;;;5012543;28;20022;-63
2021/11/23 01:57:46;;;;;;;68.65;31.50;;;;;;;;;;5015845;28;20442;-62
2021/11/23 02:00:13;;;;;;;74.65;32.92;;;;;;;;;;5016026;28;20060;-63
2021/11/23 02:02:39;;;;;;;66.97;30.90;;;;;;;;;;5016031;28;20030;-62
2021/11/23 02:05:06;;;;;;;72.20;31.00;;;;;;;;;;5015674;28;20076;-63
2021/11/23 02:07:32;;;;;;;78.30;33.20;;;;;;;;;;5015863;28;20030;-63
2021/11/23 02:09:59;;;;;;;80.65;31.67;;;;;;;;;;5016114;28;20092;-63
2021/11/23 02:12:26;;;;;;;71.10;32.40;;;;;;;;;;5017327;28;20505;-63
2021/11/23 02:14:54;;;;;;;70.63;31.98;;;;;;;;;;5050249;28;20067;-63
2021/11/23 02:17:20;;;;;;;80.70;33.92;;;;;;;;;;5050699;28;20128;-64
2021/11/23 02:19:50;;;;;;;75.35;34.28;;;;;;;;;;5050596;28;20026;-64
2021/11/23 02:22:16;;;;;;;75.47;32.60;;;;;;;;;;5017518;28;20022;-65
2021/11/23 02:24:42;;;;;;;83.00;35.00;;;;;;;;;;5050570;28;20040;-65
2021/11/23 02:27:09;;;;;;;75.35;32.92;;;;;;;;;;5035336;28;20029;-65
2021/11/23 02:29:35;;;;;;;79.38;33.78;;;;;;;;;;5017396;28;20033;-67
2021/11/23 02:32:02;;;;;;;83.78;35.88;;;;;;;;;;5035073;28;20021;-63
2021/11/23 02:34:28;;;;;;;74.95;34.05;;;;;;;;;;5035011;28;20070;-64
2021/11/23 02:36:55;;;;;;;76.75;34.00;;;;;;;;;;5050323;28;20033;-64
2021/11/23 02:39:21;;;;;;;84.13;35.80;;;;;;;;;;5034630;28;20080;-63
2021/11/23 02:41:47;;;;;;;86.07;35.70;;;;;;;;;;5050199;28;20075;-64
2021/11/23 02:44:13;;;;;;;87.07;35.47;;;;;;;;;;5050227;28;20033;-64
2021/11/23 02:46:40;;;;;;;83.80;33.97;;;;;;;;;;5016923;28;20029;-65
2021/11/23 02:49:06;;;;;;;87.75;34.67;;;;;;;;;;5034785;28;20032;-65
2021/11/23 02:51:34;;;;;;;81.10;36.60;;;;;;;;;;5034798;28;20512;-63
2021/11/23 02:54:00;;;;;;;87.40;36.50;;;;;;;;;;5034803;28;20486;-63
2021/11/23 02:56:27;;;;;;;89.10;37.72;;;;;;;;;;5034871;28;20040;-64
2021/11/23 02:58:53;;;;;;;87.65;38.55;;;;;;;;;;5034586;28;20036;-64
2021/11/23 03:01:20;;;;;;;95.85;39.80;;;;;;;;;;5034327;28;20393;-64
2021/11/23 03:03:47;;;;;;;89.03;39.30;;;;;;;;;;5034592;28;20034;-63
2021/11/23 03:06:16;;;;;;;86.10;38.60;;;;;;;;;;5016482;28;20038;-64
2021/11/23 03:08:43;;;;;;;101.93;41.63;;;;;;;;;;5034170;28;20083;-64
2021/11/23 03:11:09;;;;;;;95.70;39.70;;;;;;;;;;5034109;28;20095;-64
2021/11/23 03:13:36;;;;;;;98.13;40.65;;;;;;;;;;5034437;28;20033;-64
2021/11/23 03:16:02;;;;;;;97.55;42.47;;;;;;;;;;5034264;28;20510;-63
2021/11/23 03:18:28;;;;;;;95.82;41.60;;;;;;;;;;5033843;28;20113;-62
2021/11/23 03:20:54;;;;;;;92.78;42.05;;;;;;;;;;5049413;28;20026;-64
2021/11/23 03:23:22;;;;;;;97.45;41.75;;;;;;;;;;5049555;28;20514;-63
2021/11/23 03:25:48;;;;;;;104.70;43.42;;;;;;;;;;5033768;28;20450;-64
2021/11/23 03:28:14;;;;;;;99.55;42.25;;;;;;;;;;5032751;28;20025;-63
2021/11/23 03:30:41;;;;;;;102.10;42.88;;;;;;;;;;5034262;28;20036;-63
2021/11/23 03:33:08;;;;;;;103.07;41.92;;;;;;;;;;5032777;28;20064;-63
2021/11/23 03:35:37;;;;;;;99.95;43.35;;;;;;;;;;5033898;28;20032;-64
2021/11/23 03:38:04;;;;;;;109.95;45.10;;;;;;;;;;5032386;28;20179;-64
2021/11/23 03:40:31;;;;;;;99.63;43.13;;;;;;;;;;5032502;28;20151;-63
2021/11/23 03:42:57;;;;;;;103.80;45.40;;;;;;;;;;5033842;28;20489;-63
2021/11/23 03:45:24;;;;;;;102.88;44.58;;;;;;;;;;5033814;28;20025;-64
2021/11/23 03:47:51;;;;;;;105.57;44.05;;;;;;;;;;5032312;28;20029;-64
2021/11/23 03:50:17;;;;;;;99.60;44.30;;;;;;;;;;5033729;28;20037;-65
2021/11/23 03:52:44;;;;;;;107.55;45.65;;;;;;;;;;5033587;28;20033;-64
2021/11/23 03:55:14;;;;;;;104.90;45.80;;;;;;;;;;5033667;28;20459;-63
2021/11/23 03:57:41;;;;;;;108.68;46.17;;;;;;;;;;5033524;28;20068;-63
2021/11/23 04:00:07;;;;;;;108.00;47.25;;;;;;;;;;5033553;28;20017;-63
2021/11/23 04:02:34;;;;;;;105.35;45.35;;;;;;;;;;5033373;28;20121;-63
2021/11/23 04:05:00;;;;;;;114.22;47.35;;;;;;;;;;5033496;28;20029;-62
2021/11/23 04:07:26;;;;;;;106.03;45.63;;;;;;;;;;5033354;28;20025;-63
2021/11/23 04:09:52;;;;;;;113.68;49.35;;;;;;;;;;5033092;28;20060;-63
2021/11/23 04:12:19;;;;;;;115.75;51.17;;;;;;;;;;5045486;28;20132;-65
2021/11/23 04:14:48;;;;;;;113.30;49.90;;;;;;;;;;5053361;28;20064;-67
2021/11/23 04:17:14;;;;;;;121.45;51.38;;;;;;;;;;5052873;28;20028;-66
2021/11/23 04:19:40;;;;;;;113.50;49.78;;;;;;;;;;5052407;28;20052;-68
2021/11/23 04:22:07;;;;;;;115.72;49.92;;;;;;;;;;5034967;28;20025;-67
2021/11/23 04:24:33;;;;;;;111.15;51.95;;;;;;;;;;5053040;28;20021;-65
2021/11/23 04:27:00;;;;;;;127.82;55.30;;;;;;;;;;5053000;28;20036;-65
2021/11/23 04:29:26;;;;;;;121.75;53.08;;;;;;;;;;5053021;28;20111;-67
2021/11/23 04:31:52;;;;;;;123.57;52.40;;;;;;;;;;5052291;28;20033;-66
2021/11/23 04:34:19;;;;;;;123.40;51.47;;;;;;;;;;5035112;28;20041;-64
2021/11/23 04:36:45;;;;;;;109.13;48.60;;;;;;;;;;5052838;28;20041;-66
2021/11/23 04:39:12;;;;;;;118.30;51.28;;;;;;;;;;5041883;28;20389;-66
2021/11/23 04:41:39;;;;;;;125.40;53.33;;;;;;;;;;5015116;28;20053;-65
2021/11/23 04:44:05;;;;;;;123.53;53.83;;;;;;;;;;5032938;28;20026;-65
2021/11/23 04:46:31;;;;;;;120.88;52.28;;;;;;;;;;5032708;28;20532;-65
2021/11/23 04:48:58;;;;;;;122.82;52.95;;;;;;;;;;5015157;28;20490;-66
2021/11/23 04:51:24;;;;;;;135.75;56.42;;;;;;;;;;5033100;28;20109;-66
2021/11/23 04:53:51;;;;;;;124.55;51.53;;;;;;;;;;5015018;28;20466;-65
2021/11/23 04:56:17;;;;;;;124.40;54.53;;;;;;;;;;5032625;28;20022;-65
2021/11/23 04:58:43;;;;;;;123.10;52.05;;;;;;;;;;5014834;28;20052;-66
2021/11/23 05:01:09;;;;;;;118.97;52.03;;;;;;;;;;5032763;28;20026;-66
2021/11/23 05:03:36;;;;;;;110.75;49.78;;;;;;;;;;5031621;28;20127;-67
2021/11/23 05:06:02;;;;;;;127.97;53.67;;;;;;;;;;5014889;28;20057;-67
2021/11/23 05:08:28;;;;;;;115.38;50.25;;;;;;;;;;5032536;28;20033;-67
2021/11/23 05:10:54;;;;;;;117.05;50.75;;;;;;;;;;5032296;28;20113;-67
2021/11/23 05:13:20;;;;;;;127.95;52.30;;;;;;;;;;5032722;28;20030;-66
2021/11/23 05:15:47;;;;;;;116.70;50.63;;;;;;;;;;5031428;28;20061;-66
2021/11/23 05:18:13;;;;;;;114.93;50.70;;;;;;;;;;5032381;28;20034;-66
2021/11/23 05:20:39;;;;;;;118.07;51.30;;;;;;;;;;5032578;28;20022;-66
2021/11/23 05:23:05;;;;;;;115.10;50.42;;;;;;;;;;5032333;28;20033;-66
2021/11/23 05:25:31;;;;;;;115.32;50.35;;;;;;;;;;5032637;28;20032;-67
2021/11/23 05:27:58;;;;;;;124.85;52.10;;;;;;;;;;5031143;28;20445;-67
2021/11/23 05:30:24;;;;;;;111.90;50.63;;;;;;;;;;5032448;28;20100;-68
2021/11/23 05:32:52;;;;;;;117.78;52.42;;;;;;;;;;5034877;28;20025;-67
2021/11/23 05:35:18;;;;;;;105.05;49.72;;;;;;;;;;5036370;28;20477;-67
2021/11/23 05:37:45;;;;;;;127.95;55.55;;;;;;;;;;5036529;28;20210;-67
2021/11/23 05:40:11;;;;;;;121.47;54.05;;;;;;;;;;5036201;28;20108;-66
2021/11/23 05:42:38;;;;;;;123.90;54.28;;;;;;;;;;5036145;28;20025;-67
2021/11/23 05:45:08;;;;;;;137.55;57.97;;;;;;;;;;5036413;28;20091;-66
2021/11/23 05:47:36;;;;;;;139.48;62.00;;;;;;;;;;5036088;28;20117;-64
2021/11/23 05:50:03;;;;;;;137.85;59.13;;;;;;;;;;5036018;28;20072;-65
2021/11/23 05:52:29;;;;;;;135.68;59.25;;;;;;;;;;5035804;28;20463;-65
2021/11/23 05:54:55;;;;;;;134.15;57.00;;;;;;;;;;5035724;28;20474;-66
2021/11/23 05:57:22;;;;;;;129.93;57.33;;;;;;;;;;5035562;28;20112;-65
2021/11/23 05:59:48;;;;;;;129.27;57.75;;;;;;;;;;5035753;28;20029;-64
2021/11/23 06:02:14;;;;;;;135.48;58.25;;;;;;;;;;5035717;28;20113;-66
2021/11/23 06:04:41;;;;;;;129.07;55.50;;;;;;;;;;5036062;28;20100;-65
2021/11/23 06:07:07;;;;;;;136.23;57.75;;;;;;;;;;5035634;28;20077;-64
2021/11/23 06:09:33;;;;;;;139.77;59.05;;;;;;;;;;5035597;28;20038;-66
2021/11/23 06:11:59;;;;;;;128.57;56.00;;;;;;;;;;5035495;28;20124;-65
2021/11/23 06:14:25;;;;;;;128.52;58.38;;;;;;;;;;5034127;28;20032;-66
2021/11/23 06:16:53;;;;;;;128.18;57.72;;;;;;;;;;5035539;28;20033;-65
2021/11/23 06:19:19;;;;;;;132.57;56.83;;;;;;;;;;5035423;28;20029;-63
2021/11/23 06:21:45;;;;;;;138.15;58.90;;;;;;;;;;5034097;28;20021;-64
2021/11/23 06:24:12;;;;;;;124.82;58.38;;;;;;;;;;5035131;28;20022;-65
2021/11/23 06:26:38;;;;;;;127.07;57.20;;;;;;;;;;5035253;28;20033;-67
2021/11/23 06:29:04;;;;;;;122.65;55.92;;;;;;;;;;5035204;28;20458;-66
2021/11/23 06:31:31;;;;;;;126.75;57.25;;;;;;;;;;5035241;28;20033;-66
2021/11/23 06:33:59;;;;;;;130.18;58.13;;;;;;;;;;5035122;28;20378;-67
2021/11/23 06:36:25;;;;;;;126.78;57.30;;;;;;;;;;5035055;28;20025;-66
2021/11/23 06:38:51;;;;;;;135.88;57.40;;;;;;;;;;5033712;28;20052;-63
2021/11/23 06:41:18;;;;;;;128.02;57.53;;;;;;;;;;5033410;28;20129;-62
2021/11/23 06:43:44;;;;;;;129.10;60.38;;;;;;;;;;5034717;28;20087;-62
2021/11/23 06:46:11;;;;;;;133.93;60.78;;;;;;;;;;5034675;28;20053;-62
2021/11/23 06:48:37;;;;;;;132.38;60.88;;;;;;;;;;5035237;28;20180;-63
2021/11/23 06:51:03;;;;;;;130.23;58.90;;;;;;;;;;5029390;28;20120;-61
2021/11/23 06:53:29;;;;;;;124.00;56.20;;;;;;;;;;5034362;28;20111;-62
2021/11/23 06:55:56;;;;;;;127.80;59.42;;;;;;;;;;5034524;28;20026;-62
2021/11/23 06:58:22;;;;;;;126.50;60.28;;;;;;;;;;5034061;28;20033;-63
2021/11/23 07:00:48;;;;;;;123.72;57.60;;;;;;;;;;5033532;28;20021;-62
2021/11/23 07:03:15;;;;;;;128.40;59.72;;;;;;;;;;5033225;28;20029;-61
2021/11/23 07:05:41;;;;;;;123.00;58.50;;;;;;;;;;5016765;28;20022;-62
2021/11/23 07:08:07;;;;;;;123.78;57.78;;;;;;;;;;5033702;28;20036;-61
2021/11/23 07:10:33;;;;;;;115.15;56.28;;;;;;;;;;5016643;28;20029;-61
2021/11/23 07:13:00;;;;;;;113.85;54.22;;;;;;;;;;5052461;28;20048;-61
2021/11/23 07:15:27;;;;;;;112.68;56.47;;;;;;;;;;5054112;28;20025;-63
2021/11/23 07:17:53;;;;;;;117.95;58.53;;;;;;;;;;5054184;28;20496;-62
2021/11/23 07:20:19;;;;;;;119.18;55.90;;;;;;;;;;5054182;28;20024;-63
2021/11/23 07:22:46;;;;;;;103.32;52.20;;;;;;;;;;5054073;28;20079;-62
2021/11/23 07:25:12;;;;;;;106.25;52.00;;;;;;;;;;5053949;28;20029;-62
2021/11/23 07:27:38;;;;;;;98.40;50.95;;;;;;;;;;5053844;28;20029;-63
2021/11/23 07:30:05;;;;;;;100.60;48.97;;;;;;;;;;5054053;28;20029;-63
2021/11/23 07:32:32;;;;;;;103.45;52.53;;;;;;;;;;5053650;28;20025;-62
2021/11/23 07:34:58;;;;;;;111.93;56.03;;;;;;;;;;5053655;28;20509;-63
2021/11/23 07:37:27;;;;;;;108.65;54.28;;;;;;;;;;5035818;28;20462;-63
2021/11/23 07:39:53;;;;;;;107.20;55.90;;;;;;;;;;5053891;28;20029;-64
2021/11/23 07:42:20;;;;;;;110.20;54.90;;;;;;;;;;5053852;28;20029;-61
2021/11/23 07:44:46;;;;;;;99.93;51.63;;;;;;;;;;5053847;28;20033;-61
2021/11/23 07:47:12;;;;;;;106.03;54.60;;;;;;;;;;5035938;28;20114;-61
2021/11/23 07:49:39;;;;;;;103.15;49.33;;;;;;;;;;5035848;28;20036;-62
2021/11/23 07:52:05;;;;;;;93.13;48.00;;;;;;;;;;5053623;28;20021;-62
2021/11/23 07:54:31;;;;;;;98.78;50.08;;;;;;;;;;5035080;28;20028;-62
2021/11/23 07:56:58;;;;;;;91.25;45.45;;;;;;;;;;5049270;28;20112;-62
2021/11/23 07:59:24;;;;;;;95.20;48.50;;;;;;;;;;5052993;28;20500;-61
2021/11/23 08:01:51;;;;;;;91.97;45.97;;;;;;;;;;5035446;28;20033;-62
2021/11/23 08:04:17;;;;;;;83.85;44.15;;;;;;;;;;5035626;28;20060;-62
2021/11/23 08:06:43;;;;;;;85.18;44.08;;;;;;;;;;5053397;28;20033;-62
2021/11/23 08:09:09;;;;;;;88.05;45.15;;;;;;;;;;5053152;28;20130;-64
2021/11/23 08:11:36;;;;;;;90.88;44.95;;;;;;;;;;5035020;28;20128;-65
2021/11/23 08:14:02;;;;;;;81.00;43.80;;;;;;;;;;5053290;28;20025;-65
2021/11/23 08:16:28;;;;;;;90.90;45.80;;;;;;;;;;5053174;28;20060;-63
2021/11/23 08:18:55;;;;;;;90.68;47.28;;;;;;;;;;5053304;28;20074;-65
2021/11/23 08:21:21;;;;;;;79.55;41.70;;;;;;;;;;5034974;28;20025;-63
2021/11/23 08:23:47;;;;;;;88.22;42.95;;;;;;;;;;5051524;28;20021;-65
2021/11/23 08:26:14;;;;;;;82.50;43.63;;;;;;;;;;5034675;28;20561;-64
2021/11/23 08:28:42;;;;;;;76.00;40.88;;;;;;;;;;5032782;28;20129;-63
2021/11/23 08:31:08;;;;;;;76.50;42.25;;;;;;;;;;5032992;28;20022;-66
2021/11/23 08:33:34;;;;;;;83.72;43.03;;;;;;;;;;5015415;28;20352;-65
2021/11/23 08:36:01;;;;;;;78.28;41.50;;;;;;;;;;5032451;28;20475;-66
2021/11/23 08:38:27;;;;;;;77.72;41.20;;;;;;;;;;5014036;28;20033;-63
2021/11/23 08:40:53;;;;;;;100.68;52.05;;;;;;;;;;5032999;28;20044;-65
2021/11/23 08:43:20;;;;;;;89.45;48.15;;;;;;;;;;5032975;28;20033;-64
2021/11/23 08:45:46;;;;;;;122.07;65.38;;;;;;;;;;5033194;28;20032;-65
2021/11/23 08:48:13;;;;;;;96.70;52.00;;;;;;;;;;5032682;28;20029;-65
2021/11/23 08:50:40;;;;;;;95.55;50.03;;;;;;;;;;5032933;28;20422;-67
2021/11/23 08:53:08;;;;;;;105.30;61.75;;;;;;;;;;5030900;28;20030;-66
2021/11/23 08:55:35;;;;;;;88.35;50.97;;;;;;;;;;5032316;28;20076;-63
2021/11/23 08:58:01;;;;;;;68.47;41.33;;;;;;;;;;5032927;28;20033;-63
2021/11/23 09:00:27;;;;;;;67.85;39.97;;;;;;;;;;5032865;28;20030;-66
2021/11/23 09:02:58;;;;;;;67.93;36.10;;;;;;;;;;5014759;28;20037;-65
2021/11/23 09:05:24;;;;;;;65.88;36.17;;;;;;;;;;5016538;28;20029;-64
2021/11/23 09:07:51;;;;;;;66.10;37.30;;;;;;;;;;5036853;28;20034;-65
2021/11/23 09:10:23;;;;;;;63.40;37.17;;;;;;;;;;5036556;28;20355;-65
2021/11/23 09:12:50;;;;;;;60.65;34.85;;;;;;;;;;5036443;28;20132;-66
2021/11/23 09:15:17;;;;;;;67.15;36.97;;;;;;;;;;5036732;28;20057;-62
2021/11/23 09:17:43;;;;;;;67.07;36.92;;;;;;;;;;5036698;28;20450;-66
2021/11/23 09:20:17;;;;;;;69.93;36.70;;;;;;;;;;5018792;28;20022;-66
2021/11/23 09:22:43;;;;;;;74.80;37.28;;;;;;;;;;5036275;28;20018;-65
2021/11/23 09:25:11;;;;;;;71.78;37.42;;;;;;;;;;5035739;28;20017;-65
2021/11/23 09:27:37;;;;;;;76.32;39.17;;;;;;;;;;5035683;28;20492;-66
2021/11/23 09:30:05;;;;;;;73.15;38.90;;;;;;;;;;5018478;28;20033;-66
2021/11/23 09:32:31;;;;;;;75.05;38.97;;;;;;;;;;5036328;28;20032;-64
2021/11/23 09:34:59;;;;;;;76.82;39.47;;;;;;;;;;5018552;28;20474;-66
2021/11/23 09:37:25;;;;;;;74.20;39.85;;;;;;;;;;5036119;28;20068;-65
2021/11/23 09:39:52;;;;;;;75.50;39.28;;;;;;;;;;5036227;28;20029;-65
2021/11/23 09:42:18;;;;;;;77.15;41.33;;;;;;;;;;5036192;28;20061;-64
2021/11/23 09:44:44;;;;;;;76.47;40.63;;;;;;;;;;5035832;28;20025;-67
2021/11/23 09:47:12;;;;;;;73.13;38.35;;;;;;;;;;5036104;28;20021;-64
2021/11/23 09:49:39;;;;;;;75.13;42.17;;;;;;;;;;5035968;28;20033;-64
2021/11/23 09:52:06;;;;;;;71.60;39.17;;;;;;;;;;5036304;28;20441;-65
2021/11/23 09:54:32;;;;;;;76.90;41.15;;;;;;;;;;5035641;28;20032;-65
2021/11/23 09:56:58;;;;;;;66.18;36.10;;;;;;;;;;5017956;28;20116;-65
2021/11/23 09:59:25;;;;;;;56.47;33.03;;;;;;;;;;5035844;28;20470;-65
2021/11/23 10:02:01;;;;;;;61.22;34.30;;;;;;;;;;5035828;28;20060;-65
2021/11/23 10:04:28;;;;;;;57.10;32.47;;;;;;;;;;5035781;28;20029;-66
2021/11/23 10:07:10;;;;;;;55.67;32.25;;;;;;;;;;5035605;28;20025;-64
2021/11/23 10:09:37;;;;;;;54.05;32.05;;;;;;;;;;5035615;28;20033;-65
2021/11/23 10:12:14;;;;;;;52.72;31.85;;;;;;;;;;5007365;28;20057;-64
2021/11/23 10:14:41;;;;;;;65.20;34.75;;;;;;;;;;5015831;28;20105;-66
2021/11/23 10:17:23;;;;;;;52.72;31.17;;;;;;;;;;4997306;28;20073;-61
2021/11/23 10:19:49;;;;;;;;;;;;;;;;;;5016154;28;20026;-61
2021/11/23 10:22:28;;;;;;;53.38;30.00;;;;;;;;;;5015981;28;20377;-61
2021/11/23 10:24:58;;;;;;;51.78;31.00;;;;;;;;;;4997997;28;20071;-62
2021/11/23 10:27:25;;;;;;;54.50;30.70;;;;;;;;;;5015380;28;20429;-62
2021/11/23 10:29:51;;;;;;;57.05;32.28;;;;;;;;;;5015400;28;20065;-62
2021/11/23 10:32:17;;;;;;;58.03;33.47;;;;;;;;;;5015475;28;20022;-62
2021/11/23 10:34:45;;;;;;;61.08;32.25;;;;;;;;;;5015491;28;20029;-62
2021/11/23 10:37:27;;;;;;;50.63;28.30;;;;;;;;;;5015352;28;20022;-62
2021/11/23 10:39:53;;;;;;;50.20;30.02;;;;;;;;;;5015414;28;20022;-62
2021/11/23 10:42:22;;;;;;;50.38;29.75;;;;;;;;;;4997787;28;20061;-62
2021/11/23 10:44:56;;;;;;;41.53;25.38;;;;;;;;;;4996799;28;20021;-61
2021/11/23 10:47:22;;;;;;;47.13;26.13;;;;;;;;;;5017089;28;20022;-62
2021/11/23 10:49:50;;;;;;;40.13;25.33;;;;;;;;;;5012728;28;20108;-62
2021/11/23 10:52:26;;;;;;;47.13;27.95;;;;;;;;;;5014581;28;20018;-62
2021/11/23 10:54:52;;;;;;;37.78;24.15;;;;;;;;;;5014963;28;20037;-62
2021/11/23 10:57:19;;;;;;;39.25;25.83;;;;;;;;;;5014912;28;20030;-62
2021/11/23 10:59:45;;;;;;;36.38;23.27;;;;;;;;;;5012664;28;20069;-62
2021/11/23 11:02:11;;;;;;;38.50;24.27;;;;;;;;;;5011042;28;20026;-62
2021/11/23 11:04:43;;;;;;;36.70;23.60;;;;;;;;;;5015994;28;20022;-62
2021/11/23 11:07:10;;;;;;;45.42;27.92;;;;;;;;;;5012984;28;20026;-62
2021/11/23 11:09:37;;;;;;;43.65;25.25;;;;;;;;;;5014475;28;20032;-61
2021/11/23 11:12:04;;;;;;;48.63;28.88;;;;;;;;;;5022919;28;20089;-62
2021/11/23 11:14:35;;;;;;;34.72;21.85;;;;;;;;;;5031235;28;20009;-62
2021/11/23 11:17:03;;;;;;;47.30;27.25;;;;;;;;;;5052419;28;20112;-61
2021/11/23 11:19:49;;;;;;;72.75;34.92;;;;;;;;;;5053785;28;20021;-63
2021/11/23 11:22:16;;;;;;;37.30;23.00;;;;;;;;;;5053132;28;20033;-62
2021/11/23 11:24:55;;;;;;;37.70;23.95;;;;;;;;;;5052737;28;20017;-62
2021/11/23 11:27:35;;;;;;;36.90;22.48;;;;;;;;;;5054032;28;20418;-61
2021/11/23 11:30:20;;;;;;;34.65;23.10;;;;;;;;;;5054033;28;20017;-61
2021/11/23 11:32:47;;;;;;;36.95;21.95;;;;;;;;;;5053999;28;20025;-61
2021/11/23 11:35:26;;;;;;;37.38;23.90;;;;;;;;;;5053791;28;20078;-61
2021/11/23 11:37:53;;;;;;;35.15;23.17;;;;;;;;;;5033187;28;20025;-63
2021/11/23 11:40:30;;;;;;;31.65;20.67;;;;;;;;;;5032280;28;20040;-62
2021/11/23 11:43:06;;;;;;;32.25;21.20;;;;;;;;;;5033657;28;20029;-63
2021/11/23 11:45:42;;;;;;;47.78;26.10;;;;;;;;;;5033444;28;20233;-63
2021/11/23 11:48:23;;;;;;;41.38;25.30;;;;;;;;;;5036018;28;20543;-65
2021/11/23 11:50:59;;;;;;;65.25;34.55;;;;;;;;;;5031523;28;20035;-64
2021/11/23 11:53:29;;;;;;;39.22;22.77;;;;;;;;;;5033136;28;20121;-63
2021/11/23 11:55:56;;;;;;;34.10;22.23;;;;;;;;;;5031905;28;20440;-64
2021/11/23 11:58:40;;;;;;;33.13;22.42;;;;;;;;;;5032179;28;20124;-66
2021/11/23 12:01:18;;;;;;;36.40;21.92;;;;;;;;;;5033251;28;20719;-65
2021/11/23 12:03:44;;;;;;;38.05;23.27;;;;;;;;;;5033500;28;20030;-64
2021/11/23 12:06:13;;;;;;;31.58;21.38;;;;;;;;;;5031770;28;20505;-64
2021/11/23 12:08:40;;;;;;;37.90;23.50;;;;;;;;;;5033211;28;20048;-65
2021/11/23 12:11:29;;;;;;;39.17;23.65;;;;;;;;;;5035297;28;20471;-64
2021/11/23 12:13:59;;;;;;;42.10;25.75;;;;;;;;;;5052986;28;20032;-67
2021/11/23 12:16:28;;;;;;;40.90;23.40;;;;;;;;;;5052995;28;20028;-63
2021/11/23 12:19:06;;;;;;;35.25;21.98;;;;;;;;;;5053031;28;20017;-65
2021/11/23 12:21:34;;;;;;;37.42;22.65;;;;;;;;;;5052937;28;20112;-65
2021/11/23 12:24:02;;;;;;;32.40;19.50;;;;;;;;;;5052886;28;20458;-64
2021/11/23 12:26:38;;;;;;;25.85;18.33;;;;;;;;;;5034959;28;20454;-65
2021/11/23 12:29:05;;;;;;;30.50;18.67;;;;;;;;;;5052933;28;20495;-64
2021/11/23 12:31:33;;;;;;;28.45;18.58;;;;;;;;;;5052377;28;20029;-67
2021/11/23 12:34:01;;;;;;;28.92;17.33;;;;;;;;;;5052449;28;20551;-65
2021/11/23 12:36:29;;;;;;;30.27;17.42;;;;;;;;;;5035020;28;20422;-65
2021/11/23 12:39:06;;;;;;;27.52;18.00;;;;;;;;;;5052462;28;20017;-65
2021/11/23 12:41:32;;;;;;;29.08;18.30;;;;;;;;;;5052381;28;20024;-65
2021/11/23 12:43:58;;;;;;;32.95;18.73;;;;;;;;;;5034734;28;20359;-63
2021/11/23 12:46:27;;;;;;;29.13;16.73;;;;;;;;;;5052735;28;20028;-65
2021/11/23 12:48:55;;;;;;;29.23;17.75;;;;;;;;;;5052573;28;20025;-65
2021/11/23 12:51:23;;;;;;;31.40;19.73;;;;;;;;;;5052633;28;20032;-64
2021/11/23 12:53:54;;;;;;;34.65;21.85;;;;;;;;;;5034625;28;20021;-65
2021/11/23 12:56:21;;;;;;;29.63;16.92;;;;;;;;;;5052673;28;20385;-63
2021/11/23 12:58:47;;;;;;;26.58;18.05;;;;;;;;;;5034767;28;20029;-65
2021/11/23 13:01:26;;;;;;;23.77;16.00;;;;;;;;;;5052481;28;20036;-65
2021/11/23 13:03:54;;;;;;;45.30;23.83;;;;;;;;;;5052345;28;20028;-65
2021/11/23 13:06:20;;;;;;;21.65;15.35;;;;;;;;;;5052623;28;20017;-66
2021/11/23 13:09:05;;;;;;;24.73;15.10;;;;;;;;;;5047211;28;20033;-65
2021/11/23 13:11:33;;;;;;;27.33;16.42;;;;;;;;;;5028172;28;20077;-65
2021/11/23 13:14:09;;;;;;;27.40;16.15;;;;;;;;;;5032199;28;20032;-66
2021/11/23 13:16:45;;;;;;;25.23;16.08;;;;;;;;;;5032588;28;20028;-66
2021/11/23 13:19:12;;;;;;;35.17;19.20;;;;;;;;;;5032311;28;20494;-63
2021/11/23 13:21:38;;;;;;;29.98;18.33;;;;;;;;;;5032093;28;20025;-65
2021/11/23 13:24:06;;;;;;;33.60;18.75;;;;;;;;;;5032428;28;20467;-66
2021/11/23 13:26:32;;;;;;;33.45;19.20;;;;;;;;;;5032357;28;20040;-64
2021/11/23 13:29:01;;;;;;;34.92;20.83;;;;;;;;;;5032438;28;20029;-64
2021/11/23 13:31:29;;;;;;;41.85;23.27;;;;;;;;;;5032189;28;20052;-64
2021/11/23 13:33:57;;;;;;;36.08;21.60;;;;;;;;;;5032332;28;20109;-64
2021/11/23 13:36:30;;;;;;;28.90;19.38;;;;;;;;;;5013899;28;20041;-65
2021/11/23 13:39:03;;;;;;;45.05;24.90;;;;;;;;;;5031223;28;20029;-65
2021/11/23 13:41:43;;;;;;;41.70;22.63;;;;;;;;;;5032160;28;20018;-64
2021/11/23 13:44:11;;;;;;;58.95;35.40;;;;;;;;;;5032347;28;20029;-65
2021/11/23 13:46:45;;;;;;;51.55;29.17;;;;;;;;;;5031974;28;20018;-64
2021/11/23 13:49:32;;;;;;;23.83;15.32;;;;;;;;;;5014623;28;20026;-64
2021/11/23 13:52:14;;;;;;;101.38;51.95;;;;;;;;;;5032955;28;20076;-65
2021/11/23 13:54:54;;;;;;;31.88;18.38;;;;;;;;;;5018196;28;20123;-63
2021/11/23 13:57:22;;;;;;;26.40;16.42;;;;;;;;;;5035490;28;20111;-64
2021/11/23 13:59:58;;;;;;;28.35;17.48;;;;;;;;;;5036099;28;20488;-64
2021/11/23 14:02:43;;;;;;;32.78;18.50;;;;;;;;;;5017659;28;20696;-64
2021/11/23 14:05:10;;;;;;;38.33;20.45;;;;;;;;;;5017756;28;20030;-64
2021/11/23 14:07:56;;;;;;;28.40;16.27;;;;;;;;;;5035372;28;20021;-67
2021/11/23 14:10:30;;;;;;;35.35;20.17;;;;;;;;;;5035577;28;20470;-66
2021/11/23 14:13:04;;;;;;;46.20;22.98;;;;;;;;;;5035635;28;20060;-66
2021/11/23 14:15:38;;;;;;;32.80;18.88;;;;;;;;;;5017587;28;20488;-63
2021/11/23 14:18:07;;;;;;;33.10;19.98;;;;;;;;;;5035089;28;20025;-65